Главная страница
METAR-TAF:

METAR-TAF

Аэропорты :

Пуэнт-Нуар, Конго

широта: 04-49S, долгота: 011-54E, высота над уровнем моря: 17 м

Текущие метеонаблюдения

Эта сводка был подготовлена 43 минут назад, в 07:00 UTC
Ветер 3 Узел от восточно-северо-восточный
Температура 23°C
Влажность 94%
Давление 1011 hPa
Видимость: 7000 м
небольшая облачность на высоте 1000 фута
Рассеянная облачность на высоте 2000 фута

METAR: FCPP 240700Z 06003KT 7000 FEW010 BKN020 23/22 Q1011 NOSIG

Время: 08:43 (07:43 UTC)

Прогноз

Эта сводка был подготовлена 2 часа и 43 минут назад, в 05:00 UTC
Прогноз действительный с 24-го 06 UTC до 25-го 06 UTC
Ветер 6 Узел от южный-юго-западный
Видимость: 8000 м
Отдельные облака на высоте 1300 фута
Рассеянная облачность на высоте 2300 фута
Вероятность 30%
С 24-го 16 UTC до 24-го 20 UTC
Отдельные облака на высоте 1400 фута
небольшая облачность на высоте 3000 фута, Кучево-дождевые.

TAF: FCPP 240500Z 2406/2506 20006KT 8000 SCT013 BKN023 PROB30 2416/2420 SCT014 FEW030CB

Метеонаблюдения и прогнозы для более 4000 аэропортов (сводки METAR и TAF).

Имеющиеся станции представлены на карте желтыми и красными точками.

Чтобы увидеть название станции, наведите на нее мышь.

Затем щелкните, чтобы увидеть метеонаблюдения и метеопрогнозы.

Управление картой: чтобы увеличить масштаб, щелкните зеленые кнопки с черным крестиком; чтобы уменьшить масштаб, щелкните зеленую кнопку с тире; для просмотра соседних карт щелкайте зеленые стрелки.


METAR-TAF: